sensor_id;sensor_type;location;lat;lon;timestamp;P1;durP1;ratioP1;P2;durP2;ratioP2
31594;SDS011;18200;48.726;8.892;2023-02-22T00:04:03;14.20;;;8.35;;
31594;SDS011;18200;48.726;8.892;2023-02-22T00:08:06;14.27;;;8.05;;
31594;SDS011;18200;48.726;8.892;2023-02-22T00:12:10;17.02;;;8.35;;
31594;SDS011;18200;48.726;8.892;2023-02-22T00:16:15;18.95;;;8.82;;
31594;SDS011;18200;48.726;8.892;2023-02-22T00:20:18;19.50;;;8.40;;
31594;SDS011;18200;48.726;8.892;2023-02-22T00:24:19;15.65;;;8.13;;
31594;SDS011;18200;48.726;8.892;2023-02-22T00:28:22;20.35;;;9.30;;
31594;SDS011;18200;48.726;8.892;2023-02-22T00:32:25;22.27;;;9.90;;
31594;SDS011;18200;48.726;8.892;2023-02-22T00:36:26;21.27;;;9.45;;
31594;SDS011;18200;48.726;8.892;2023-02-22T00:40:28;17.05;;;9.52;;
31594;SDS011;18200;48.726;8.892;2023-02-22T00:44:30;18.25;;;8.48;;
31594;SDS011;18200;48.726;8.892;2023-02-22T00:48:32;16.83;;;8.60;;
31594;SDS011;18200;48.726;8.892;2023-02-22T00:52:32;19.73;;;9.07;;
31594;SDS011;18200;48.726;8.892;2023-02-22T00:56:33;24.05;;;8.93;;
31594;SDS011;18200;48.726;8.892;2023-02-22T01:00:35;15.07;;;8.05;;
31594;SDS011;18200;48.726;8.892;2023-02-22T01:04:38;16.15;;;8.25;;
31594;SDS011;18200;48.726;8.892;2023-02-22T01:08:41;16.65;;;8.38;;
31594;SDS011;18200;48.726;8.892;2023-02-22T01:12:43;17.42;;;8.40;;
31594;SDS011;18200;48.726;8.892;2023-02-22T01:16:44;21.48;;;9.25;;
31594;SDS011;18200;48.726;8.892;2023-02-22T01:20:45;19.58;;;10.25;;
31594;SDS011;18200;48.726;8.892;2023-02-22T01:24:49;26.93;;;10.43;;
31594;SDS011;18200;48.726;8.892;2023-02-22T01:28:50;18.17;;;8.93;;
31594;SDS011;18200;48.726;8.892;2023-02-22T01:32:51;20.63;;;9.48;;
31594;SDS011;18200;48.726;8.892;2023-02-22T01:36:52;17.13;;;9.00;;
31594;SDS011;18200;48.726;8.892;2023-02-22T01:40:53;14.82;;;8.57;;
31594;SDS011;18200;48.726;8.892;2023-02-22T01:49:36;16.38;;;8.25;;
31594;SDS011;18200;48.726;8.892;2023-02-22T01:57:46;18.73;;;8.50;;
31594;SDS011;18200;48.726;8.892;2023-02-22T02:01:48;20.77;;;10.18;;
31594;SDS011;18200;48.726;8.892;2023-02-22T02:05:50;16.30;;;8.57;;
31594;SDS011;18200;48.726;8.892;2023-02-22T02:09:55;19.77;;;9.82;;
31594;SDS011;18200;48.726;8.892;2023-02-22T02:13:58;20.23;;;9.38;;
31594;SDS011;18200;48.726;8.892;2023-02-22T02:18:04;19.13;;;9.65;;
31594;SDS011;18200;48.726;8.892;2023-02-22T02:31:04;17.73;;;9.13;;
31594;SDS011;18200;48.726;8.892;2023-02-22T02:35:10;18.20;;;8.75;;
31594;SDS011;18200;48.726;8.892;2023-02-22T02:39:28;17.17;;;9.73;;
31594;SDS011;18200;48.726;8.892;2023-02-22T02:43:40;20.02;;;9.98;;
31594;SDS011;18200;48.726;8.892;2023-02-22T02:47:46;16.95;;;8.85;;
31594;SDS011;18200;48.726;8.892;2023-02-22T02:51:52;21.00;;;8.98;;
31594;SDS011;18200;48.726;8.892;2023-02-22T02:55:57;19.10;;;9.55;;
31594;SDS011;18200;48.726;8.892;2023-02-22T03:00:00;16.90;;;8.98;;
31594;SDS011;18200;48.726;8.892;2023-02-22T03:04:03;15.95;;;8.52;;
31594;SDS011;18200;48.726;8.892;2023-02-22T03:08:30;19.67;;;9.10;;
31594;SDS011;18200;48.726;8.892;2023-02-22T03:13:03;16.92;;;8.15;;
31594;SDS011;18200;48.726;8.892;2023-02-22T03:17:22;18.67;;;8.60;;
31594;SDS011;18200;48.726;8.892;2023-02-22T03:21:56;21.73;;;9.23;;
31594;SDS011;18200;48.726;8.892;2023-02-22T03:25:58;17.55;;;8.90;;
31594;SDS011;18200;48.726;8.892;2023-02-22T03:30:06;13.30;;;7.53;;
31594;SDS011;18200;48.726;8.892;2023-02-22T03:34:18;19.85;;;8.73;;
31594;SDS011;18200;48.726;8.892;2023-02-22T03:38:23;21.27;;;8.00;;
31594;SDS011;18200;48.726;8.892;2023-02-22T03:42:29;14.82;;;8.25;;
31594;SDS011;18200;48.726;8.892;2023-02-22T03:46:38;19.88;;;8.73;;
31594;SDS011;18200;48.726;8.892;2023-02-22T03:50:42;17.45;;;8.95;;
31594;SDS011;18200;48.726;8.892;2023-02-22T03:54:43;15.10;;;8.68;;
31594;SDS011;18200;48.726;8.892;2023-02-22T03:58:44;16.45;;;9.07;;
31594;SDS011;18200;48.726;8.892;2023-02-22T04:02:47;18.17;;;8.10;;
31594;SDS011;18200;48.726;8.892;2023-02-22T04:06:52;18.48;;;8.05;;
31594;SDS011;18200;48.726;8.892;2023-02-22T04:10:53;21.05;;;9.77;;
31594;SDS011;18200;48.726;8.892;2023-02-22T04:14:56;25.33;;;9.32;;
31594;SDS011;18200;48.726;8.892;2023-02-22T04:18:57;17.90;;;10.30;;
31594;SDS011;18200;48.726;8.892;2023-02-22T04:22:58;17.48;;;8.52;;
31594;SDS011;18200;48.726;8.892;2023-02-22T04:26:58;16.40;;;9.45;;
31594;SDS011;18200;48.726;8.892;2023-02-22T04:30:59;25.92;;;9.95;;
31594;SDS011;18200;48.726;8.892;2023-02-22T04:35:00;20.45;;;8.80;;
31594;SDS011;18200;48.726;8.892;2023-02-22T04:39:03;15.65;;;8.93;;
31594;SDS011;18200;48.726;8.892;2023-02-22T04:43:04;19.17;;;9.30;;
31594;SDS011;18200;48.726;8.892;2023-02-22T04:47:05;24.55;;;9.65;;
31594;SDS011;18200;48.726;8.892;2023-02-22T04:51:07;21.75;;;9.98;;
31594;SDS011;18200;48.726;8.892;2023-02-22T04:55:08;22.50;;;9.43;;
31594;SDS011;18200;48.726;8.892;2023-02-22T04:59:10;18.25;;;8.77;;
31594;SDS011;18200;48.726;8.892;2023-02-22T05:03:12;21.98;;;9.38;;
31594;SDS011;18200;48.726;8.892;2023-02-22T05:07:13;16.75;;;8.18;;
31594;SDS011;18200;48.726;8.892;2023-02-22T05:11:13;21.02;;;8.88;;
31594;SDS011;18200;48.726;8.892;2023-02-22T05:15:15;23.50;;;9.43;;
31594;SDS011;18200;48.726;8.892;2023-02-22T05:19:23;19.23;;;8.30;;
31594;SDS011;18200;48.726;8.892;2023-02-22T05:23:25;18.05;;;8.52;;
31594;SDS011;18200;48.726;8.892;2023-02-22T05:27:26;21.40;;;8.77;;
31594;SDS011;18200;48.726;8.892;2023-02-22T05:31:26;21.50;;;9.68;;
31594;SDS011;18200;48.726;8.892;2023-02-22T05:35:27;21.40;;;10.02;;
31594;SDS011;18200;48.726;8.892;2023-02-22T05:39:28;23.40;;;9.98;;
31594;SDS011;18200;48.726;8.892;2023-02-22T05:43:29;20.48;;;9.88;;
31594;SDS011;18200;48.726;8.892;2023-02-22T05:47:29;20.30;;;9.68;;
31594;SDS011;18200;48.726;8.892;2023-02-22T05:51:30;22.02;;;10.32;;
31594;SDS011;18200;48.726;8.892;2023-02-22T05:55:30;30.13;;;12.00;;
31594;SDS011;18200;48.726;8.892;2023-02-22T05:59:31;20.80;;;10.38;;
31594;SDS011;18200;48.726;8.892;2023-02-22T06:03:31;19.27;;;9.30;;
31594;SDS011;18200;48.726;8.892;2023-02-22T06:07:31;16.30;;;8.77;;
31594;SDS011;18200;48.726;8.892;2023-02-22T06:11:32;16.75;;;8.55;;
31594;SDS011;18200;48.726;8.892;2023-02-22T06:15:32;15.35;;;8.45;;
31594;SDS011;18200;48.726;8.892;2023-02-22T06:19:33;16.83;;;8.82;;
31594;SDS011;18200;48.726;8.892;2023-02-22T06:23:33;21.52;;;10.13;;
31594;SDS011;18200;48.726;8.892;2023-02-22T06:27:34;17.65;;;8.85;;
31594;SDS011;18200;48.726;8.892;2023-02-22T06:31:34;18.38;;;8.75;;
31594;SDS011;18200;48.726;8.892;2023-02-22T06:35:35;18.85;;;8.38;;
31594;SDS011;18200;48.726;8.892;2023-02-22T06:39:36;20.58;;;8.85;;
31594;SDS011;18200;48.726;8.892;2023-02-22T06:43:36;20.48;;;9.43;;
31594;SDS011;18200;48.726;8.892;2023-02-22T06:47:37;21.30;;;10.80;;
31594;SDS011;18200;48.726;8.892;2023-02-22T06:51:39;18.55;;;10.10;;
31594;SDS011;18200;48.726;8.892;2023-02-22T06:55:40;18.27;;;9.85;;
31594;SDS011;18200;48.726;8.892;2023-02-22T06:59:40;28.48;;;11.85;;
31594;SDS011;18200;48.726;8.892;2023-02-22T07:03:41;19.48;;;10.23;;
31594;SDS011;18200;48.726;8.892;2023-02-22T07:07:41;26.30;;;11.13;;
31594;SDS011;18200;48.726;8.892;2023-02-22T07:11:42;22.83;;;11.70;;
31594;SDS011;18200;48.726;8.892;2023-02-22T07:15:42;20.48;;;9.98;;
31594;SDS011;18200;48.726;8.892;2023-02-22T07:19:43;20.65;;;10.55;;
31594;SDS011;18200;48.726;8.892;2023-02-22T07:23:49;29.02;;;12.13;;
31594;SDS011;18200;48.726;8.892;2023-02-22T07:27:53;23.63;;;11.38;;
31594;SDS011;18200;48.726;8.892;2023-02-22T07:31:53;28.33;;;11.25;;
31594;SDS011;18200;48.726;8.892;2023-02-22T07:35:54;17.15;;;10.32;;
31594;SDS011;18200;48.726;8.892;2023-02-22T07:39:55;19.98;;;11.10;;
31594;SDS011;18200;48.726;8.892;2023-02-22T07:43:55;21.70;;;10.98;;
31594;SDS011;18200;48.726;8.892;2023-02-22T07:47:56;17.42;;;9.93;;
31594;SDS011;18200;48.726;8.892;2023-02-22T07:51:57;19.73;;;10.55;;
31594;SDS011;18200;48.726;8.892;2023-02-22T07:55:57;17.70;;;9.80;;
31594;SDS011;18200;48.726;8.892;2023-02-22T08:00:00;20.20;;;9.52;;
31594;SDS011;18200;48.726;8.892;2023-02-22T08:04:00;16.60;;;8.90;;
31594;SDS011;18200;48.726;8.892;2023-02-22T08:08:01;19.48;;;10.90;;
31594;SDS011;18200;48.726;8.892;2023-02-22T08:12:01;18.25;;;10.18;;
31594;SDS011;18200;48.726;8.892;2023-02-22T08:16:02;21.08;;;10.73;;
31594;SDS011;18200;48.726;8.892;2023-02-22T08:20:02;15.70;;;9.60;;
31594;SDS011;18200;48.726;8.892;2023-02-22T08:24:03;19.83;;;10.95;;
31594;SDS011;18200;48.726;8.892;2023-02-22T08:28:05;23.35;;;10.70;;
31594;SDS011;18200;48.726;8.892;2023-02-22T08:32:10;21.27;;;10.50;;
31594;SDS011;18200;48.726;8.892;2023-02-22T08:36:10;22.20;;;9.93;;
31594;SDS011;18200;48.726;8.892;2023-02-22T08:40:11;17.15;;;9.15;;
31594;SDS011;18200;48.726;8.892;2023-02-22T08:44:12;25.88;;;10.80;;
31594;SDS011;18200;48.726;8.892;2023-02-22T08:48:13;29.95;;;13.00;;
31594;SDS011;18200;48.726;8.892;2023-02-22T08:52:14;20.73;;;10.63;;
31594;SDS011;18200;48.726;8.892;2023-02-22T08:56:15;18.33;;;9.27;;
31594;SDS011;18200;48.726;8.892;2023-02-22T09:00:16;15.18;;;9.23;;
31594;SDS011;18200;48.726;8.892;2023-02-22T09:04:17;15.15;;;8.38;;
31594;SDS011;18200;48.726;8.892;2023-02-22T09:08:18;17.27;;;8.70;;
31594;SDS011;18200;48.726;8.892;2023-02-22T09:12:18;15.20;;;8.43;;
31594;SDS011;18200;48.726;8.892;2023-02-22T09:16:18;14.32;;;7.57;;
31594;SDS011;18200;48.726;8.892;2023-02-22T09:20:19;14.98;;;7.43;;
31594;SDS011;18200;48.726;8.892;2023-02-22T09:24:22;13.98;;;7.22;;
31594;SDS011;18200;48.726;8.892;2023-02-22T09:28:23;14.27;;;7.45;;
31594;SDS011;18200;48.726;8.892;2023-02-22T09:32:24;13.23;;;7.57;;
31594;SDS011;18200;48.726;8.892;2023-02-22T09:36:26;16.55;;;7.28;;
31594;SDS011;18200;48.726;8.892;2023-02-22T09:40:28;15.57;;;7.25;;
31594;SDS011;18200;48.726;8.892;2023-02-22T09:44:35;13.45;;;6.13;;
31594;SDS011;18200;48.726;8.892;2023-02-22T09:48:40;12.40;;;6.20;;
31594;SDS011;18200;48.726;8.892;2023-02-22T09:52:53;11.35;;;6.32;;
31594;SDS011;18200;48.726;8.892;2023-02-22T09:57:00;13.73;;;5.70;;
31594;SDS011;18200;48.726;8.892;2023-02-22T10:05:38;9.98;;;5.65;;
31594;SDS011;18200;48.726;8.892;2023-02-22T10:09:41;11.15;;;5.15;;
31594;SDS011;18200;48.726;8.892;2023-02-22T10:13:48;9.20;;;4.60;;
31594;SDS011;18200;48.726;8.892;2023-02-22T10:18:16;10.77;;;5.30;;
31594;SDS011;18200;48.726;8.892;2023-02-22T10:22:40;11.73;;;5.82;;
31594;SDS011;18200;48.726;8.892;2023-02-22T10:26:52;17.23;;;6.03;;
31594;SDS011;18200;48.726;8.892;2023-02-22T10:30:58;11.48;;;6.50;;
31594;SDS011;18200;48.726;8.892;2023-02-22T10:35:05;12.95;;;6.72;;
31594;SDS011;18200;48.726;8.892;2023-02-22T10:39:34;11.82;;;6.55;;
31594;SDS011;18200;48.726;8.892;2023-02-22T10:43:38;12.20;;;6.40;;
31594;SDS011;18200;48.726;8.892;2023-02-22T10:47:40;13.13;;;6.78;;
31594;SDS011;18200;48.726;8.892;2023-02-22T10:51:41;12.63;;;7.18;;
31594;SDS011;18200;48.726;8.892;2023-02-22T11:04:28;15.85;;;6.20;;
31594;SDS011;18200;48.726;8.892;2023-02-22T11:08:44;11.90;;;6.72;;
31594;SDS011;18200;48.726;8.892;2023-02-22T11:12:49;13.63;;;6.57;;
31594;SDS011;18200;48.726;8.892;2023-02-22T11:16:51;12.38;;;6.53;;
31594;SDS011;18200;48.726;8.892;2023-02-22T11:21:07;13.13;;;6.45;;
31594;SDS011;18200;48.726;8.892;2023-02-22T11:25:16;13.63;;;6.20;;
31594;SDS011;18200;48.726;8.892;2023-02-22T11:29:28;10.55;;;6.50;;
31594;SDS011;18200;48.726;8.892;2023-02-22T11:33:34;13.60;;;6.55;;
31594;SDS011;18200;48.726;8.892;2023-02-22T11:37:36;12.80;;;6.75;;
31594;SDS011;18200;48.726;8.892;2023-02-22T11:41:37;12.82;;;6.90;;
31594;SDS011;18200;48.726;8.892;2023-02-22T11:45:37;13.07;;;6.28;;
31594;SDS011;18200;48.726;8.892;2023-02-22T11:49:40;14.00;;;6.95;;
31594;SDS011;18200;48.726;8.892;2023-02-22T12:06:26;11.07;;;6.60;;
31594;SDS011;18200;48.726;8.892;2023-02-22T12:15:13;13.30;;;7.57;;
31594;SDS011;18200;48.726;8.892;2023-02-22T12:28:24;15.30;;;7.93;;
31594;SDS011;18200;48.726;8.892;2023-02-22T12:32:52;14.15;;;7.97;;
31594;SDS011;18200;48.726;8.892;2023-02-22T12:37:00;16.75;;;7.72;;
31594;SDS011;18200;48.726;8.892;2023-02-22T12:45:44;14.10;;;7.65;;
31594;SDS011;18200;48.726;8.892;2023-02-22T12:49:51;21.77;;;8.50;;
31594;SDS011;18200;48.726;8.892;2023-02-22T12:54:00;18.08;;;10.18;;
31594;SDS011;18200;48.726;8.892;2023-02-22T12:58:22;15.75;;;8.13;;
31594;SDS011;18200;48.726;8.892;2023-02-22T13:02:35;22.20;;;9.48;;
31594;SDS011;18200;48.726;8.892;2023-02-22T13:06:48;17.15;;;9.55;;
31594;SDS011;18200;48.726;8.892;2023-02-22T13:11:22;20.75;;;8.85;;
31594;SDS011;18200;48.726;8.892;2023-02-22T13:15:56;18.15;;;8.43;;
31594;SDS011;18200;48.726;8.892;2023-02-22T13:24:48;18.15;;;9.27;;
31594;SDS011;18200;48.726;8.892;2023-02-22T13:29:05;18.95;;;9.27;;
31594;SDS011;18200;48.726;8.892;2023-02-22T13:33:31;17.10;;;8.65;;
31594;SDS011;18200;48.726;8.892;2023-02-22T13:42:23;14.68;;;10.00;;
31594;SDS011;18200;48.726;8.892;2023-02-22T13:55:16;23.33;;;10.43;;
31594;SDS011;18200;48.726;8.892;2023-02-22T13:59:26;15.20;;;8.85;;
31594;SDS011;18200;48.726;8.892;2023-02-22T14:03:35;14.68;;;8.80;;
31594;SDS011;18200;48.726;8.892;2023-02-22T14:07:46;18.77;;;10.48;;
31594;SDS011;18200;48.726;8.892;2023-02-22T14:11:48;18.83;;;9.40;;
31594;SDS011;18200;48.726;8.892;2023-02-22T14:24:14;21.38;;;9.77;;
31594;SDS011;18200;48.726;8.892;2023-02-22T14:32:49;20.40;;;10.85;;
31594;SDS011;18200;48.726;8.892;2023-02-22T14:37:05;16.90;;;10.25;;
31594;SDS011;18200;48.726;8.892;2023-02-22T14:45:32;21.13;;;11.45;;
31594;SDS011;18200;48.726;8.892;2023-02-22T14:49:37;19.90;;;10.32;;
31594;SDS011;18200;48.726;8.892;2023-02-22T14:53:43;20.98;;;10.80;;
31594;SDS011;18200;48.726;8.892;2023-02-22T14:57:46;20.33;;;11.07;;
31594;SDS011;18200;48.726;8.892;2023-02-22T15:02:06;25.45;;;11.35;;
31594;SDS011;18200;48.726;8.892;2023-02-22T15:06:18;22.73;;;11.00;;
31594;SDS011;18200;48.726;8.892;2023-02-22T15:14:26;19.05;;;11.40;;
31594;SDS011;18200;48.726;8.892;2023-02-22T15:18:28;19.30;;;11.02;;
31594;SDS011;18200;48.726;8.892;2023-02-22T15:22:33;23.45;;;11.60;;
31594;SDS011;18200;48.726;8.892;2023-02-22T15:26:39;19.67;;;11.33;;
31594;SDS011;18200;48.726;8.892;2023-02-22T15:30:42;23.77;;;11.80;;
31594;SDS011;18200;48.726;8.892;2023-02-22T15:34:43;23.95;;;11.43;;
31594;SDS011;18200;48.726;8.892;2023-02-22T15:38:50;25.63;;;13.68;;
31594;SDS011;18200;48.726;8.892;2023-02-22T15:42:52;25.30;;;13.70;;
31594;SDS011;18200;48.726;8.892;2023-02-22T15:46:53;21.08;;;11.68;;
31594;SDS011;18200;48.726;8.892;2023-02-22T15:55:15;23.60;;;11.18;;
31594;SDS011;18200;48.726;8.892;2023-02-22T15:59:24;18.75;;;10.27;;
31594;SDS011;18200;48.726;8.892;2023-02-22T16:03:34;22.83;;;10.85;;
31594;SDS011;18200;48.726;8.892;2023-02-22T16:07:47;20.55;;;11.10;;
31594;SDS011;18200;48.726;8.892;2023-02-22T16:11:49;38.22;;;18.42;;
31594;SDS011;18200;48.726;8.892;2023-02-22T16:24:24;26.73;;;11.60;;
31594;SDS011;18200;48.726;8.892;2023-02-22T16:28:33;27.10;;;10.85;;
31594;SDS011;18200;48.726;8.892;2023-02-22T16:32:37;23.52;;;11.75;;
31594;SDS011;18200;48.726;8.892;2023-02-22T16:36:39;23.00;;;11.10;;
31594;SDS011;18200;48.726;8.892;2023-02-22T16:40:56;22.50;;;10.77;;
31594;SDS011;18200;48.726;8.892;2023-02-22T16:44:59;25.52;;;12.05;;
31594;SDS011;18200;48.726;8.892;2023-02-22T16:49:00;29.40;;;16.48;;
31594;SDS011;18200;48.726;8.892;2023-02-22T16:53:02;29.85;;;14.18;;
31594;SDS011;18200;48.726;8.892;2023-02-22T16:57:03;26.48;;;11.43;;
31594;SDS011;18200;48.726;8.892;2023-02-22T17:01:04;34.13;;;16.75;;
31594;SDS011;18200;48.726;8.892;2023-02-22T17:05:05;45.67;;;26.42;;
31594;SDS011;18200;48.726;8.892;2023-02-22T17:09:06;38.63;;;20.55;;
31594;SDS011;18200;48.726;8.892;2023-02-22T17:13:07;30.38;;;15.68;;
31594;SDS011;18200;48.726;8.892;2023-02-22T17:17:08;28.63;;;15.45;;
31594;SDS011;18200;48.726;8.892;2023-02-22T17:21:11;24.27;;;12.52;;
31594;SDS011;18200;48.726;8.892;2023-02-22T17:25:22;22.95;;;12.68;;
31594;SDS011;18200;48.726;8.892;2023-02-22T17:29:25;27.15;;;13.15;;
31594;SDS011;18200;48.726;8.892;2023-02-22T17:33:28;20.45;;;11.70;;
31594;SDS011;18200;48.726;8.892;2023-02-22T17:37:30;23.65;;;12.48;;
31594;SDS011;18200;48.726;8.892;2023-02-22T17:41:30;27.30;;;12.57;;
31594;SDS011;18200;48.726;8.892;2023-02-22T17:45:31;29.33;;;14.27;;
31594;SDS011;18200;48.726;8.892;2023-02-22T17:49:31;22.95;;;13.02;;
31594;SDS011;18200;48.726;8.892;2023-02-22T17:53:32;25.83;;;12.18;;
31594;SDS011;18200;48.726;8.892;2023-02-22T17:57:33;26.40;;;12.75;;
31594;SDS011;18200;48.726;8.892;2023-02-22T18:01:34;28.38;;;13.82;;
31594;SDS011;18200;48.726;8.892;2023-02-22T18:05:44;29.05;;;13.80;;
31594;SDS011;18200;48.726;8.892;2023-02-22T18:09:48;27.38;;;13.95;;
31594;SDS011;18200;48.726;8.892;2023-02-22T18:13:49;27.67;;;14.70;;
31594;SDS011;18200;48.726;8.892;2023-02-22T18:17:49;26.48;;;14.13;;
31594;SDS011;18200;48.726;8.892;2023-02-22T18:21:49;25.40;;;15.35;;
31594;SDS011;18200;48.726;8.892;2023-02-22T18:25:51;31.90;;;15.52;;
31594;SDS011;18200;48.726;8.892;2023-02-22T18:29:51;29.42;;;14.18;;
31594;SDS011;18200;48.726;8.892;2023-02-22T18:33:52;23.83;;;13.75;;
31594;SDS011;18200;48.726;8.892;2023-02-22T18:37:52;29.30;;;14.70;;
31594;SDS011;18200;48.726;8.892;2023-02-22T18:41:53;26.85;;;13.65;;
31594;SDS011;18200;48.726;8.892;2023-02-22T18:45:53;27.55;;;13.40;;
31594;SDS011;18200;48.726;8.892;2023-02-22T18:49:54;45.83;;;23.15;;
31594;SDS011;18200;48.726;8.892;2023-02-22T18:53:56;35.70;;;19.75;;
31594;SDS011;18200;48.726;8.892;2023-02-22T18:57:59;36.70;;;19.08;;
31594;SDS011;18200;48.726;8.892;2023-02-22T19:02:00;38.42;;;19.10;;
31594;SDS011;18200;48.726;8.892;2023-02-22T19:06:01;35.70;;;17.75;;
31594;SDS011;18200;48.726;8.892;2023-02-22T19:10:03;63.63;;;27.92;;
31594;SDS011;18200;48.726;8.892;2023-02-22T19:14:05;42.65;;;19.30;;
31594;SDS011;18200;48.726;8.892;2023-02-22T19:18:07;46.58;;;21.45;;
31594;SDS011;18200;48.726;8.892;2023-02-22T19:22:08;50.72;;;23.08;;
31594;SDS011;18200;48.726;8.892;2023-02-22T19:26:15;40.28;;;20.70;;
31594;SDS011;18200;48.726;8.892;2023-02-22T19:30:19;45.00;;;21.60;;
31594;SDS011;18200;48.726;8.892;2023-02-22T19:34:20;32.65;;;17.35;;
31594;SDS011;18200;48.726;8.892;2023-02-22T19:38:22;30.05;;;16.67;;
31594;SDS011;18200;48.726;8.892;2023-02-22T19:42:23;33.17;;;15.65;;
31594;SDS011;18200;48.726;8.892;2023-02-22T19:46:23;32.75;;;16.50;;
31594;SDS011;18200;48.726;8.892;2023-02-22T19:50:24;33.15;;;17.63;;
31594;SDS011;18200;48.726;8.892;2023-02-22T19:54:24;31.65;;;17.13;;
31594;SDS011;18200;48.726;8.892;2023-02-22T19:58:24;36.83;;;18.58;;
31594;SDS011;18200;48.726;8.892;2023-02-22T20:02:25;30.45;;;17.48;;
31594;SDS011;18200;48.726;8.892;2023-02-22T20:06:28;33.00;;;17.58;;
31594;SDS011;18200;48.726;8.892;2023-02-22T20:10:31;30.88;;;18.23;;
31594;SDS011;18200;48.726;8.892;2023-02-22T20:14:33;29.77;;;18.83;;
31594;SDS011;18200;48.726;8.892;2023-02-22T20:18:34;37.38;;;18.67;;
31594;SDS011;18200;48.726;8.892;2023-02-22T20:22:35;31.02;;;15.73;;
31594;SDS011;18200;48.726;8.892;2023-02-22T20:26:36;27.88;;;15.07;;
31594;SDS011;18200;48.726;8.892;2023-02-22T20:30:38;28.95;;;15.07;;
31594;SDS011;18200;48.726;8.892;2023-02-22T20:34:39;25.40;;;13.82;;
31594;SDS011;18200;48.726;8.892;2023-02-22T20:38:44;31.10;;;15.80;;
31594;SDS011;18200;48.726;8.892;2023-02-22T20:42:44;29.67;;;14.45;;
31594;SDS011;18200;48.726;8.892;2023-02-22T20:46:46;25.38;;;14.05;;
31594;SDS011;18200;48.726;8.892;2023-02-22T20:50:47;28.38;;;16.15;;
31594;SDS011;18200;48.726;8.892;2023-02-22T20:54:48;30.27;;;16.70;;
31594;SDS011;18200;48.726;8.892;2023-02-22T20:58:48;35.03;;;15.60;;
31594;SDS011;18200;48.726;8.892;2023-02-22T21:02:49;27.15;;;14.63;;
31594;SDS011;18200;48.726;8.892;2023-02-22T21:06:50;26.58;;;15.35;;
31594;SDS011;18200;48.726;8.892;2023-02-22T21:10:51;28.42;;;15.90;;
31594;SDS011;18200;48.726;8.892;2023-02-22T21:14:51;37.17;;;19.50;;
31594;SDS011;18200;48.726;8.892;2023-02-22T21:18:53;55.00;;;29.60;;
31594;SDS011;18200;48.726;8.892;2023-02-22T21:22:55;35.88;;;18.20;;
31594;SDS011;18200;48.726;8.892;2023-02-22T21:26:55;33.33;;;15.38;;
31594;SDS011;18200;48.726;8.892;2023-02-22T21:31:02;29.60;;;15.30;;
31594;SDS011;18200;48.726;8.892;2023-02-22T21:35:07;33.05;;;17.60;;
31594;SDS011;18200;48.726;8.892;2023-02-22T21:39:09;40.92;;;19.48;;
31594;SDS011;18200;48.726;8.892;2023-02-22T21:43:17;40.17;;;21.63;;
31594;SDS011;18200;48.726;8.892;2023-02-22T21:47:18;29.63;;;15.40;;
31594;SDS011;18200;48.726;8.892;2023-02-22T21:51:22;33.75;;;17.20;;
31594;SDS011;18200;48.726;8.892;2023-02-22T21:55:24;42.97;;;23.55;;
31594;SDS011;18200;48.726;8.892;2023-02-22T21:59:25;39.30;;;22.63;;
31594;SDS011;18200;48.726;8.892;2023-02-22T22:03:25;37.35;;;23.02;;
31594;SDS011;18200;48.726;8.892;2023-02-22T22:07:26;37.70;;;19.55;;
31594;SDS011;18200;48.726;8.892;2023-02-22T22:11:27;31.73;;;16.65;;
31594;SDS011;18200;48.726;8.892;2023-02-22T22:15:29;33.40;;;18.02;;
31594;SDS011;18200;48.726;8.892;2023-02-22T22:19:36;36.55;;;18.85;;
31594;SDS011;18200;48.726;8.892;2023-02-22T22:23:40;29.48;;;15.98;;
31594;SDS011;18200;48.726;8.892;2023-02-22T22:27:41;49.28;;;26.05;;
31594;SDS011;18200;48.726;8.892;2023-02-22T22:31:43;50.63;;;24.63;;
31594;SDS011;18200;48.726;8.892;2023-02-22T22:35:44;38.58;;;19.58;;
31594;SDS011;18200;48.726;8.892;2023-02-22T22:39:44;40.38;;;19.92;;
31594;SDS011;18200;48.726;8.892;2023-02-22T22:43:45;35.63;;;19.30;;
31594;SDS011;18200;48.726;8.892;2023-02-22T22:47:46;41.55;;;21.65;;
31594;SDS011;18200;48.726;8.892;2023-02-22T22:51:47;34.17;;;18.17;;
31594;SDS011;18200;48.726;8.892;2023-02-22T22:55:47;30.52;;;17.13;;
31594;SDS011;18200;48.726;8.892;2023-02-22T22:59:47;32.53;;;16.27;;
31594;SDS011;18200;48.726;8.892;2023-02-22T23:03:52;25.10;;;15.13;;
31594;SDS011;18200;48.726;8.892;2023-02-22T23:07:54;28.45;;;15.65;;
31594;SDS011;18200;48.726;8.892;2023-02-22T23:11:56;36.42;;;18.00;;
31594;SDS011;18200;48.726;8.892;2023-02-22T23:16:08;42.15;;;17.98;;
31594;SDS011;18200;48.726;8.892;2023-02-22T23:20:11;31.63;;;16.25;;
31594;SDS011;18200;48.726;8.892;2023-02-22T23:24:12;33.08;;;16.80;;
31594;SDS011;18200;48.726;8.892;2023-02-22T23:28:16;33.00;;;17.05;;
31594;SDS011;18200;48.726;8.892;2023-02-22T23:32:17;32.22;;;16.30;;
31594;SDS011;18200;48.726;8.892;2023-02-22T23:36:17;28.23;;;15.13;;
31594;SDS011;18200;48.726;8.892;2023-02-22T23:40:18;26.17;;;14.50;;
31594;SDS011;18200;48.726;8.892;2023-02-22T23:44:19;32.13;;;15.40;;
31594;SDS011;18200;48.726;8.892;2023-02-22T23:48:20;26.13;;;15.65;;
31594;SDS011;18200;48.726;8.892;2023-02-22T23:52:21;34.13;;;16.58;;
31594;SDS011;18200;48.726;8.892;2023-02-22T23:56:24;27.02;;;15.25;;
